sensor_id;sensor_type;location;lat;lon;timestamp;pressure;altitude;pressure_sealevel;temperature;humidity
70053;BME280;57398;52.032;4.376;2022-12-17T00:02:15;102463.19;;;-6.30;nan
70053;BME280;57398;52.032;4.376;2022-12-17T00:05:01;102451.44;;;-6.32;nan
70053;BME280;57398;52.032;4.376;2022-12-17T00:07:46;102453.06;;;-6.30;nan
70053;BME280;57398;52.032;4.376;2022-12-17T00:10:31;102443.75;;;-6.30;nan
70053;BME280;57398;52.032;4.376;2022-12-17T00:13:17;102450.22;;;-6.23;nan
70053;BME280;57398;52.032;4.376;2022-12-17T00:16:05;102446.09;;;-6.06;nan
70053;BME280;57398;52.032;4.376;2022-12-17T00:18:51;102456.84;;;-5.84;nan
70053;BME280;57398;52.032;4.376;2022-12-17T00:21:36;102453.56;;;-5.86;nan
70053;BME280;57398;52.032;4.376;2022-12-17T00:24:22;102464.75;;;-5.92;nan
70053;BME280;57398;52.032;4.376;2022-12-17T00:27:07;102468.44;;;-5.97;nan
70053;BME280;57398;52.032;4.376;2022-12-17T00:29:52;102465.00;;;-5.96;nan
70053;BME280;57398;52.032;4.376;2022-12-17T00:32:39;102469.47;;;-6.01;nan
70053;BME280;57398;52.032;4.376;2022-12-17T00:35:24;102465.56;;;-6.08;nan
70053;BME280;57398;52.032;4.376;2022-12-17T00:38:13;102472.91;;;-6.02;nan
70053;BME280;57398;52.032;4.376;2022-12-17T00:40:59;102462.78;;;-6.02;nan
70053;BME280;57398;52.032;4.376;2022-12-17T00:43:44;102462.72;;;-5.83;nan
70053;BME280;57398;52.032;4.376;2022-12-17T00:46:29;102454.31;;;-5.66;nan
70053;BME280;57398;52.032;4.376;2022-12-17T00:49:17;102465.91;;;-5.26;nan
70053;BME280;57398;52.032;4.376;2022-12-17T00:52:01;102473.72;;;-5.31;nan
70053;BME280;57398;52.032;4.376;2022-12-17T00:54:47;102464.25;;;-5.44;nan
70053;BME280;57398;52.032;4.376;2022-12-17T00:57:32;102472.81;;;-5.47;nan
70053;BME280;57398;52.032;4.376;2022-12-17T01:00:18;102470.84;;;-5.59;nan
70053;BME280;57398;52.032;4.376;2022-12-17T01:03:05;102485.44;;;-5.64;nan
70053;BME280;57398;52.032;4.376;2022-12-17T01:05:52;102481.41;;;-5.69;nan
70053;BME280;57398;52.032;4.376;2022-12-17T01:08:37;102480.97;;;-5.77;nan
70053;BME280;57398;52.032;4.376;2022-12-17T01:11:22;102477.75;;;-5.80;nan
70053;BME280;57398;52.032;4.376;2022-12-17T01:14:07;102474.13;;;-5.75;nan
70053;BME280;57398;52.032;4.376;2022-12-17T01:16:53;102486.69;;;-5.73;nan
70053;BME280;57398;52.032;4.376;2022-12-17T01:19:38;102481.78;;;-5.76;nan
70053;BME280;57398;52.032;4.376;2022-12-17T01:22:27;102478.28;;;-5.74;nan
70053;BME280;57398;52.032;4.376;2022-12-17T01:25:12;102482.31;;;-5.70;nan
70053;BME280;57398;52.032;4.376;2022-12-17T01:27:57;102481.88;;;-5.43;nan
70053;BME280;57398;52.032;4.376;2022-12-17T01:30:43;102488.81;;;-5.29;nan
70053;BME280;57398;52.032;4.376;2022-12-17T01:33:28;102487.56;;;-5.20;nan
70053;BME280;57398;52.032;4.376;2022-12-17T01:36:13;102489.44;;;-5.24;nan
70053;BME280;57398;52.032;4.376;2022-12-17T01:39:00;102491.28;;;-5.28;nan
70053;BME280;57398;52.032;4.376;2022-12-17T01:41:45;102503.91;;;-5.26;nan
70053;BME280;57398;52.032;4.376;2022-12-17T01:44:46;102502.19;;;-5.26;nan
70053;BME280;57398;52.032;4.376;2022-12-17T01:47:34;102505.31;;;-5.38;nan
70053;BME280;57398;52.032;4.376;2022-12-17T01:50:23;102502.47;;;-5.49;nan
70053;BME280;57398;52.032;4.376;2022-12-17T01:53:10;102501.94;;;-5.56;nan
70053;BME280;57398;52.032;4.376;2022-12-17T01:55:57;102507.75;;;-5.54;nan
70053;BME280;57398;52.032;4.376;2022-12-17T01:58:43;102507.66;;;-5.52;nan
70053;BME280;57398;52.032;4.376;2022-12-17T02:01:28;102510.53;;;-5.60;nan
70053;BME280;57398;52.032;4.376;2022-12-17T02:04:13;102514.09;;;-5.64;nan
70053;BME280;57398;52.032;4.376;2022-12-17T02:07:14;102511.09;;;-5.53;nan
70053;BME280;57398;52.032;4.376;2022-12-17T02:10:09;102513.41;;;-5.49;nan
70053;BME280;57398;52.032;4.376;2022-12-17T02:13:07;102525.09;;;-5.46;nan
70053;BME280;57398;52.032;4.376;2022-12-17T02:15:59;102520.31;;;-5.52;nan
70053;BME280;57398;52.032;4.376;2022-12-17T02:18:48;102522.88;;;-5.35;nan
70053;BME280;57398;52.032;4.376;2022-12-17T02:21:36;102526.47;;;-5.21;nan
70053;BME280;57398;52.032;4.376;2022-12-17T02:24:43;102534.00;;;-5.20;nan
70053;BME280;57398;52.032;4.376;2022-12-17T02:27:33;102526.97;;;-5.32;nan
70053;BME280;57398;52.032;4.376;2022-12-17T02:30:18;102533.91;;;-5.36;nan
70053;BME280;57398;52.032;4.376;2022-12-17T02:33:04;102537.59;;;-5.43;nan
70053;BME280;57398;52.032;4.376;2022-12-17T02:35:53;102529.16;;;-5.61;nan
70053;BME280;57398;52.032;4.376;2022-12-17T02:38:41;102539.19;;;-5.77;nan
70053;BME280;57398;52.032;4.376;2022-12-17T02:41:28;102544.34;;;-5.80;nan
70053;BME280;57398;52.032;4.376;2022-12-17T02:44:17;102543.13;;;-5.71;nan
70053;BME280;57398;52.032;4.376;2022-12-17T02:47:05;102545.50;;;-5.68;nan
70053;BME280;57398;52.032;4.376;2022-12-17T02:49:52;102542.66;;;-5.60;nan
70053;BME280;57398;52.032;4.376;2022-12-17T02:52:39;102546.59;;;-5.55;nan
70053;BME280;57398;52.032;4.376;2022-12-17T02:55:26;102548.59;;;-5.61;nan
70053;BME280;57398;52.032;4.376;2022-12-17T02:58:11;102542.84;;;-5.65;nan
70053;BME280;57398;52.032;4.376;2022-12-17T03:00:58;102554.34;;;-5.58;nan
70053;BME280;57398;52.032;4.376;2022-12-17T03:03:43;102555.19;;;-5.40;nan
70053;BME280;57398;52.032;4.376;2022-12-17T03:06:28;102558.66;;;-5.23;nan
70053;BME280;57398;52.032;4.376;2022-12-17T03:09:13;102570.94;;;-5.16;nan
70053;BME280;57398;52.032;4.376;2022-12-17T03:11:58;102557.69;;;-5.21;nan
70053;BME280;57398;52.032;4.376;2022-12-17T03:17:30;102559.31;;;-5.37;nan
70053;BME280;57398;52.032;4.376;2022-12-17T03:20:15;102564.84;;;-5.48;nan
70053;BME280;57398;52.032;4.376;2022-12-17T03:23:01;102567.19;;;-5.43;nan
70053;BME280;57398;52.032;4.376;2022-12-17T03:25:47;102575.69;;;-5.44;nan
70053;BME280;57398;52.032;4.376;2022-12-17T03:28:32;102574.16;;;-5.49;nan
70053;BME280;57398;52.032;4.376;2022-12-17T03:31:18;102570.22;;;-5.54;nan
70053;BME280;57398;52.032;4.376;2022-12-17T03:34:05;102578.09;;;-5.60;nan
70053;BME280;57398;52.032;4.376;2022-12-17T03:36:50;102587.78;;;-5.51;nan
70053;BME280;57398;52.032;4.376;2022-12-17T03:39:34;102574.13;;;-5.30;nan
70053;BME280;57398;52.032;4.376;2022-12-17T03:42:19;102586.19;;;-4.98;nan
70053;BME280;57398;52.032;4.376;2022-12-17T03:45:05;102577.47;;;-4.75;nan
70053;BME280;57398;52.032;4.376;2022-12-17T03:47:50;102575.81;;;-4.59;nan
70053;BME280;57398;52.032;4.376;2022-12-17T03:50:39;102583.53;;;-4.45;nan
70053;BME280;57398;52.032;4.376;2022-12-17T03:53:26;102584.22;;;-4.41;nan
70053;BME280;57398;52.032;4.376;2022-12-17T03:56:11;102582.66;;;-4.44;nan
70053;BME280;57398;52.032;4.376;2022-12-17T03:58:56;102583.97;;;-4.36;nan
70053;BME280;57398;52.032;4.376;2022-12-17T04:01:41;102586.97;;;-4.28;nan
70053;BME280;57398;52.032;4.376;2022-12-17T04:04:27;102586.56;;;-4.21;nan
70053;BME280;57398;52.032;4.376;2022-12-17T04:07:13;102575.13;;;-4.12;nan
70053;BME280;57398;52.032;4.376;2022-12-17T04:09:59;102572.41;;;-4.09;nan
70053;BME280;57398;52.032;4.376;2022-12-17T04:12:44;102565.25;;;-4.01;nan
70053;BME280;57398;52.032;4.376;2022-12-17T04:15:30;102563.75;;;-4.05;nan
70053;BME280;57398;52.032;4.376;2022-12-17T04:18:15;102560.97;;;-4.00;nan
70053;BME280;57398;52.032;4.376;2022-12-17T04:21:00;102569.56;;;-4.03;nan
70053;BME280;57398;52.032;4.376;2022-12-17T04:23:46;102581.66;;;-4.08;nan
70053;BME280;57398;52.032;4.376;2022-12-17T04:26:32;102581.41;;;-4.19;nan
70053;BME280;57398;52.032;4.376;2022-12-17T04:29:17;102570.59;;;-4.23;nan
70053;BME280;57398;52.032;4.376;2022-12-17T04:32:02;102585.34;;;-4.13;nan
70053;BME280;57398;52.032;4.376;2022-12-17T04:34:48;102577.97;;;-4.18;nan
70053;BME280;57398;52.032;4.376;2022-12-17T04:37:33;102588.34;;;-4.23;nan
70053;BME280;57398;52.032;4.376;2022-12-17T04:40:20;102583.69;;;-4.30;nan
70053;BME280;57398;52.032;4.376;2022-12-17T04:43:06;102582.94;;;-4.32;nan
70053;BME280;57398;52.032;4.376;2022-12-17T04:45:52;102577.94;;;-4.34;nan
70053;BME280;57398;52.032;4.376;2022-12-17T04:48:37;102571.06;;;-4.32;nan
70053;BME280;57398;52.032;4.376;2022-12-17T04:51:22;102577.06;;;-4.33;nan
70053;BME280;57398;52.032;4.376;2022-12-17T04:54:07;102578.00;;;-4.35;nan
70053;BME280;57398;52.032;4.376;2022-12-17T04:56:54;102578.97;;;-4.38;nan
70053;BME280;57398;52.032;4.376;2022-12-17T04:59:39;102574.41;;;-4.31;nan
70053;BME280;57398;52.032;4.376;2022-12-17T05:02:25;102591.34;;;-4.32;nan
70053;BME280;57398;52.032;4.376;2022-12-17T05:05:10;102590.16;;;-4.25;nan
70053;BME280;57398;52.032;4.376;2022-12-17T05:07:56;102577.63;;;-4.28;nan
70053;BME280;57398;52.032;4.376;2022-12-17T05:10:42;102581.88;;;-4.28;nan
70053;BME280;57398;52.032;4.376;2022-12-17T05:13:28;102587.53;;;-4.23;nan
70053;BME280;57398;52.032;4.376;2022-12-17T05:16:14;102580.34;;;-4.15;nan
70053;BME280;57398;52.032;4.376;2022-12-17T05:18:59;102588.56;;;-4.10;nan
70053;BME280;57398;52.032;4.376;2022-12-17T05:21:44;102582.63;;;-4.10;nan
70053;BME280;57398;52.032;4.376;2022-12-17T05:24:30;102585.91;;;-4.08;nan
70053;BME280;57398;52.032;4.376;2022-12-17T05:27:15;102590.81;;;-4.21;nan
70053;BME280;57398;52.032;4.376;2022-12-17T05:30:02;102596.94;;;-4.25;nan
70053;BME280;57398;52.032;4.376;2022-12-17T05:32:57;102596.38;;;-4.30;nan
70053;BME280;57398;52.032;4.376;2022-12-17T05:35:42;102600.25;;;-4.40;nan
70053;BME280;57398;52.032;4.376;2022-12-17T05:38:27;102595.03;;;-4.55;nan
70053;BME280;57398;52.032;4.376;2022-12-17T05:41:13;102606.06;;;-4.56;nan
70053;BME280;57398;52.032;4.376;2022-12-17T05:43:58;102609.34;;;-4.54;nan
70053;BME280;57398;52.032;4.376;2022-12-17T05:46:45;102609.88;;;-4.47;nan
70053;BME280;57398;52.032;4.376;2022-12-17T05:49:30;102619.34;;;-4.33;nan
70053;BME280;57398;52.032;4.376;2022-12-17T05:52:15;102611.88;;;-4.36;nan
70053;BME280;57398;52.032;4.376;2022-12-17T05:55:00;102625.53;;;-4.39;nan
70053;BME280;57398;52.032;4.376;2022-12-17T05:57:46;102624.63;;;-4.38;nan
70053;BME280;57398;52.032;4.376;2022-12-17T06:00:31;102625.09;;;-4.30;nan
70053;BME280;57398;52.032;4.376;2022-12-17T06:03:18;102626.13;;;-4.34;nan
70053;BME280;57398;52.032;4.376;2022-12-17T06:06:03;102621.97;;;-4.35;nan
70053;BME280;57398;52.032;4.376;2022-12-17T06:08:49;102623.00;;;-4.39;nan
70053;BME280;57398;52.032;4.376;2022-12-17T06:11:37;102628.72;;;-4.35;nan
70053;BME280;57398;52.032;4.376;2022-12-17T06:14:27;102625.16;;;-4.31;nan
70053;BME280;57398;52.032;4.376;2022-12-17T06:17:13;102632.69;;;-4.30;nan
70053;BME280;57398;52.032;4.376;2022-12-17T06:19:58;102637.84;;;-4.31;nan
70053;BME280;57398;52.032;4.376;2022-12-17T06:22:44;102642.31;;;-4.36;nan
70053;BME280;57398;52.032;4.376;2022-12-17T06:25:29;102642.50;;;-4.39;nan
70053;BME280;57398;52.032;4.376;2022-12-17T06:28:14;102645.16;;;-4.43;nan
70053;BME280;57398;52.032;4.376;2022-12-17T06:30:59;102637.88;;;-4.66;nan
70053;BME280;57398;52.032;4.376;2022-12-17T06:33:45;102642.03;;;-4.65;nan
70053;BME280;57398;52.032;4.376;2022-12-17T06:36:31;102633.91;;;-4.72;nan
70053;BME280;57398;52.032;4.376;2022-12-17T06:39:16;102637.56;;;-4.77;nan
70053;BME280;57398;52.032;4.376;2022-12-17T06:42:02;102637.84;;;-4.84;nan
70053;BME280;57398;52.032;4.376;2022-12-17T06:44:47;102644.84;;;-4.89;nan
70053;BME280;57398;52.032;4.376;2022-12-17T06:47:32;102631.63;;;-4.95;nan
70053;BME280;57398;52.032;4.376;2022-12-17T06:50:28;102644.25;;;-4.94;nan
70053;BME280;57398;52.032;4.376;2022-12-17T06:53:15;102647.88;;;-4.99;nan
70053;BME280;57398;52.032;4.376;2022-12-17T06:56:01;102649.22;;;-5.10;nan
70053;BME280;57398;52.032;4.376;2022-12-17T06:58:46;102659.34;;;-5.10;nan
70053;BME280;57398;52.032;4.376;2022-12-17T07:01:31;102643.81;;;-4.85;nan
70053;BME280;57398;52.032;4.376;2022-12-17T07:04:17;102646.81;;;-4.76;nan
70053;BME280;57398;52.032;4.376;2022-12-17T07:07:02;102657.84;;;-4.60;nan
70053;BME280;57398;52.032;4.376;2022-12-17T07:09:49;102659.78;;;-4.65;nan
70053;BME280;57398;52.032;4.376;2022-12-17T07:12:39;102659.28;;;-4.72;nan
70053;BME280;57398;52.032;4.376;2022-12-17T07:15:24;102663.22;;;-4.66;nan
70053;BME280;57398;52.032;4.376;2022-12-17T07:18:09;102663.44;;;-4.71;nan
70053;BME280;57398;52.032;4.376;2022-12-17T07:20:55;102667.69;;;-4.71;nan
70053;BME280;57398;52.032;4.376;2022-12-17T07:23:51;102677.81;;;-4.54;nan
70053;BME280;57398;52.032;4.376;2022-12-17T07:26:38;102674.09;;;-4.47;nan
70053;BME280;57398;52.032;4.376;2022-12-17T07:29:24;102683.59;;;-4.33;nan
70053;BME280;57398;52.032;4.376;2022-12-17T07:32:09;102687.59;;;-4.29;nan
70053;BME280;57398;52.032;4.376;2022-12-17T07:34:54;102694.75;;;-4.19;nan
70053;BME280;57398;52.032;4.376;2022-12-17T07:37:39;102694.00;;;-4.22;nan
70053;BME280;57398;52.032;4.376;2022-12-17T07:40:25;102694.47;;;-4.31;nan
70053;BME280;57398;52.032;4.376;2022-12-17T07:43:12;102695.53;;;-4.35;nan
70053;BME280;57398;52.032;4.376;2022-12-17T07:45:58;102693.00;;;-4.35;nan
70053;BME280;57398;52.032;4.376;2022-12-17T07:48:43;102696.88;;;-4.28;nan
70053;BME280;57398;52.032;4.376;2022-12-17T07:51:28;102701.72;;;-4.40;nan
70053;BME280;57398;52.032;4.376;2022-12-17T07:54:13;102705.91;;;-4.39;nan
70053;BME280;57398;52.032;4.376;2022-12-17T07:56:58;102705.75;;;-4.36;nan
70053;BME280;57398;52.032;4.376;2022-12-17T07:59:45;102710.75;;;-4.35;nan
70053;BME280;57398;52.032;4.376;2022-12-17T08:02:31;102715.75;;;-4.33;nan
70053;BME280;57398;52.032;4.376;2022-12-17T08:05:16;102722.09;;;-4.25;nan
70053;BME280;57398;52.032;4.376;2022-12-17T08:08:06;102715.91;;;-4.19;nan
70053;BME280;57398;52.032;4.376;2022-12-17T08:10:51;102709.75;;;-4.15;nan
70053;BME280;57398;52.032;4.376;2022-12-17T08:13:36;102709.84;;;-4.16;nan
70053;BME280;57398;52.032;4.376;2022-12-17T08:16:23;102702.75;;;-4.10;nan
70053;BME280;57398;52.032;4.376;2022-12-17T08:19:08;102702.09;;;-4.13;nan
70053;BME280;57398;52.032;4.376;2022-12-17T08:21:53;102725.44;;;-4.07;nan
70053;BME280;57398;52.032;4.376;2022-12-17T08:24:39;102719.47;;;-4.06;nan
70053;BME280;57398;52.032;4.376;2022-12-17T08:27:24;102722.44;;;-3.97;nan
70053;BME280;57398;52.032;4.376;2022-12-17T08:30:10;102720.44;;;-3.91;nan
70053;BME280;57398;52.032;4.376;2022-12-17T08:33:02;102733.63;;;-3.84;nan
70053;BME280;57398;52.032;4.376;2022-12-17T08:35:50;102723.38;;;-3.83;nan
70053;BME280;57398;52.032;4.376;2022-12-17T08:38:35;102734.69;;;-3.88;nan
70053;BME280;57398;52.032;4.376;2022-12-17T08:41:21;102733.78;;;-3.87;nan
70053;BME280;57398;52.032;4.376;2022-12-17T08:44:06;102740.22;;;-3.80;nan
70053;BME280;57398;52.032;4.376;2022-12-17T08:46:52;102740.13;;;-3.79;nan
70053;BME280;57398;52.032;4.376;2022-12-17T08:49:38;102734.91;;;-3.75;nan
70053;BME280;57398;52.032;4.376;2022-12-17T08:52:24;102748.31;;;-3.73;nan
70053;BME280;57398;52.032;4.376;2022-12-17T08:55:09;102756.38;;;-3.83;nan
70053;BME280;57398;52.032;4.376;2022-12-17T08:57:55;102763.94;;;-3.81;nan
70053;BME280;57398;52.032;4.376;2022-12-17T09:00:41;102760.59;;;-3.82;nan
70053;BME280;57398;52.032;4.376;2022-12-17T09:03:26;102762.09;;;-3.77;nan
70053;BME280;57398;52.032;4.376;2022-12-17T09:06:13;102759.44;;;-3.76;nan
70053;BME280;57398;52.032;4.376;2022-12-17T09:09:04;102771.78;;;-3.68;nan
70053;BME280;57398;52.032;4.376;2022-12-17T09:11:58;102766.38;;;-3.62;nan
70053;BME280;57398;52.032;4.376;2022-12-17T09:14:43;102765.53;;;-3.45;nan
70053;BME280;57398;52.032;4.376;2022-12-17T09:17:24;102766.41;;;-3.46;nan
70053;BME280;57398;52.032;4.376;2022-12-17T09:20:10;102772.34;;;-3.46;nan
70053;BME280;57398;52.032;4.376;2022-12-17T09:22:57;102769.34;;;-3.54;nan
70053;BME280;57398;52.032;4.376;2022-12-17T09:25:42;102780.91;;;-3.48;nan
70053;BME280;57398;52.032;4.376;2022-12-17T09:28:28;102775.84;;;-3.48;nan
70053;BME280;57398;52.032;4.376;2022-12-17T09:31:13;102788.44;;;-3.29;nan
70053;BME280;57398;52.032;4.376;2022-12-17T09:34:02;102800.00;;;-3.24;nan
70053;BME280;57398;52.032;4.376;2022-12-17T09:36:48;102806.72;;;-3.23;nan
70053;BME280;57398;52.032;4.376;2022-12-17T09:39:34;102806.81;;;-3.08;nan
70053;BME280;57398;52.032;4.376;2022-12-17T09:42:22;102815.44;;;-3.11;nan
70053;BME280;57398;52.032;4.376;2022-12-17T09:45:19;102810.44;;;-3.12;nan
70053;BME280;57398;52.032;4.376;2022-12-17T09:48:10;102808.13;;;-3.17;nan
70053;BME280;57398;52.032;4.376;2022-12-17T09:50:59;102802.06;;;-3.14;nan
70053;BME280;57398;52.032;4.376;2022-12-17T09:53:46;102810.84;;;-3.04;nan
70053;BME280;57398;52.032;4.376;2022-12-17T09:56:35;102810.00;;;-3.05;nan
70053;BME280;57398;52.032;4.376;2022-12-17T09:59:23;102817.91;;;-2.93;nan
70053;BME280;57398;52.032;4.376;2022-12-17T10:02:12;102813.78;;;-2.96;nan
70053;BME280;57398;52.032;4.376;2022-12-17T10:05:00;102817.41;;;-2.84;nan
70053;BME280;57398;52.032;4.376;2022-12-17T10:07:46;102810.53;;;-2.66;nan
70053;BME280;57398;52.032;4.376;2022-12-17T10:10:32;102820.31;;;-2.59;nan
70053;BME280;57398;52.032;4.376;2022-12-17T10:13:21;102818.31;;;-2.54;nan
70053;BME280;57398;52.032;4.376;2022-12-17T10:16:21;102815.19;;;-2.43;nan
70053;BME280;57398;52.032;4.376;2022-12-17T10:19:12;102802.59;;;-2.30;nan
70053;BME280;57398;52.032;4.376;2022-12-17T10:22:09;102805.72;;;-2.25;nan
70053;BME280;57398;52.032;4.376;2022-12-17T10:24:55;102803.50;;;-2.15;nan
70053;BME280;57398;52.032;4.376;2022-12-17T10:27:40;102799.09;;;-2.13;nan
70053;BME280;57398;52.032;4.376;2022-12-17T10:30:27;102794.41;;;-2.05;nan
70053;BME280;57398;52.032;4.376;2022-12-17T10:33:17;102798.09;;;-1.95;nan
70053;BME280;57398;52.032;4.376;2022-12-17T10:36:04;102796.56;;;-1.83;nan
70053;BME280;57398;52.032;4.376;2022-12-17T10:38:59;102798.41;;;-1.71;nan
70053;BME280;57398;52.032;4.376;2022-12-17T10:41:44;102795.38;;;-1.63;nan
70053;BME280;57398;52.032;4.376;2022-12-17T10:44:32;102810.69;;;-1.63;nan
70053;BME280;57398;52.032;4.376;2022-12-17T10:47:20;102798.31;;;-1.55;nan
70053;BME280;57398;52.032;4.376;2022-12-17T10:50:09;102797.69;;;-1.44;nan
70053;BME280;57398;52.032;4.376;2022-12-17T10:52:55;102796.03;;;-1.31;nan
70053;BME280;57398;52.032;4.376;2022-12-17T10:55:47;102796.66;;;-1.13;nan
70053;BME280;57398;52.032;4.376;2022-12-17T10:58:33;102798.66;;;-1.03;nan
70053;BME280;57398;52.032;4.376;2022-12-17T11:01:21;102800.84;;;-0.97;nan
70053;BME280;57398;52.032;4.376;2022-12-17T11:04:22;102797.06;;;-0.92;nan
70053;BME280;57398;52.032;4.376;2022-12-17T11:07:20;102796.09;;;-0.89;nan
70053;BME280;57398;52.032;4.376;2022-12-17T11:10:14;102795.66;;;-0.96;nan
70053;BME280;57398;52.032;4.376;2022-12-17T11:13:02;102793.16;;;-0.83;nan
70053;BME280;57398;52.032;4.376;2022-12-17T11:15:51;102793.59;;;-0.76;nan
70053;BME280;57398;52.032;4.376;2022-12-17T11:18:39;102785.47;;;-0.69;nan
70053;BME280;57398;52.032;4.376;2022-12-17T11:21:32;102782.28;;;-0.72;nan
70053;BME280;57398;52.032;4.376;2022-12-17T11:24:22;102783.72;;;-0.68;nan
70053;BME280;57398;52.032;4.376;2022-12-17T11:27:11;102791.72;;;-0.60;nan
70053;BME280;57398;52.032;4.376;2022-12-17T11:29:59;102788.97;;;-0.57;nan
70053;BME280;57398;52.032;4.376;2022-12-17T11:32:57;102782.44;;;-0.48;nan
70053;BME280;57398;52.032;4.376;2022-12-17T11:35:49;102783.81;;;-0.43;nan
70053;BME280;57398;52.032;4.376;2022-12-17T11:38:40;102780.81;;;-0.49;nan
70053;BME280;57398;52.032;4.376;2022-12-17T11:41:36;102783.91;;;-0.44;nan
70053;BME280;57398;52.032;4.376;2022-12-17T11:44:32;102779.22;;;-0.37;nan
70053;BME280;57398;52.032;4.376;2022-12-17T11:47:29;102770.75;;;-0.38;nan
70053;BME280;57398;52.032;4.376;2022-12-17T11:50:26;102772.00;;;-0.31;nan
70053;BME280;57398;52.032;4.376;2022-12-17T11:56:37;102757.31;;;-0.27;nan
70053;BME280;57398;52.032;4.376;2022-12-17T11:59:29;102759.34;;;-0.19;nan
70053;BME280;57398;52.032;4.376;2022-12-17T12:02:32;102755.78;;;-0.17;nan
70053;BME280;57398;52.032;4.376;2022-12-17T12:05:29;102750.38;;;-0.12;nan
70053;BME280;57398;52.032;4.376;2022-12-17T12:08:25;102754.66;;;-0.13;nan
70053;BME280;57398;52.032;4.376;2022-12-17T12:11:18;102747.91;;;-0.14;nan
70053;BME280;57398;52.032;4.376;2022-12-17T12:14:18;102749.47;;;-0.11;nan
70053;BME280;57398;52.032;4.376;2022-12-17T12:17:21;102737.28;;;-0.08;nan
70053;BME280;57398;52.032;4.376;2022-12-17T12:20:19;102740.16;;;-0.12;nan
70053;BME280;57398;52.032;4.376;2022-12-17T12:23:17;102738.41;;;-0.12;nan
70053;BME280;57398;52.032;4.376;2022-12-17T12:26:11;102725.22;;;-0.18;nan
70053;BME280;57398;52.032;4.376;2022-12-17T12:29:23;102731.16;;;-0.18;nan
70053;BME280;57398;52.032;4.376;2022-12-17T12:32:18;102731.75;;;-0.14;nan
70053;BME280;57398;52.032;4.376;2022-12-17T12:35:13;102732.38;;;-0.11;nan
70053;BME280;57398;52.032;4.376;2022-12-17T12:38:01;102732.19;;;-0.08;nan
70053;BME280;57398;52.032;4.376;2022-12-17T12:40:50;102735.38;;;-0.04;nan
70053;BME280;57398;52.032;4.376;2022-12-17T12:43:43;102733.63;;;-0.04;nan
70053;BME280;57398;52.032;4.376;2022-12-17T12:46:35;102741.69;;;-0.10;nan
70053;BME280;57398;52.032;4.376;2022-12-17T12:49:25;102738.50;;;-0.01;nan
70053;BME280;57398;52.032;4.376;2022-12-17T12:52:17;102731.88;;;-0.03;nan
70053;BME280;57398;52.032;4.376;2022-12-17T12:55:04;102735.16;;;-0.01;nan
70053;BME280;57398;52.032;4.376;2022-12-17T12:57:56;102732.59;;;-0.01;nan
70053;BME280;57398;52.032;4.376;2022-12-17T13:00:52;102727.47;;;-0.01;nan
70053;BME280;57398;52.032;4.376;2022-12-17T13:03:52;102727.25;;;0.02;nan
70053;BME280;57398;52.032;4.376;2022-12-17T13:06:43;102729.63;;;0.05;nan
70053;BME280;57398;52.032;4.376;2022-12-17T13:09:29;102724.84;;;0.01;nan
70053;BME280;57398;52.032;4.376;2022-12-17T13:12:22;102731.16;;;-0.05;nan
70053;BME280;57398;52.032;4.376;2022-12-17T13:14:54;102727.88;;;-0.07;nan
70053;BME280;57398;52.032;4.376;2022-12-17T13:17:29;102731.06;;;-0.04;nan
70053;BME280;57398;52.032;4.376;2022-12-17T13:20:22;102718.28;;;-0.04;nan
70053;BME280;57398;52.032;4.376;2022-12-17T13:22:51;102717.66;;;-0.07;nan
70053;BME280;57398;52.032;4.376;2022-12-17T13:25:21;102712.66;;;-0.09;nan
70053;BME280;57398;52.032;4.376;2022-12-17T13:27:50;102716.03;;;-0.08;nan
70053;BME280;57398;52.032;4.376;2022-12-17T13:30:29;102710.84;;;-0.07;nan
70053;BME280;57398;52.032;4.376;2022-12-17T13:33:06;102706.72;;;-0.09;nan
70053;BME280;57398;52.032;4.376;2022-12-17T13:35:48;102713.78;;;-0.13;nan
70053;BME280;57398;52.032;4.376;2022-12-17T13:38:25;102709.06;;;-0.19;nan
70053;BME280;57398;52.032;4.376;2022-12-17T13:41:05;102708.69;;;-0.13;nan
70053;BME280;57398;52.032;4.376;2022-12-17T13:43:39;102711.53;;;-0.17;nan
70053;BME280;57398;52.032;4.376;2022-12-17T13:46:19;102712.97;;;-0.13;nan
70053;BME280;57398;52.032;4.376;2022-12-17T13:48:52;102715.00;;;-0.18;nan
70053;BME280;57398;52.032;4.376;2022-12-17T13:51:24;102710.72;;;-0.18;nan
70053;BME280;57398;52.032;4.376;2022-12-17T13:53:54;102714.81;;;-0.15;nan
70053;BME280;57398;52.032;4.376;2022-12-17T13:56:25;102709.59;;;-0.14;nan
70053;BME280;57398;52.032;4.376;2022-12-17T13:58:55;102718.19;;;-0.15;nan
70053;BME280;57398;52.032;4.376;2022-12-17T14:01:23;102711.75;;;-0.20;nan
70053;BME280;57398;52.032;4.376;2022-12-17T14:03:53;102723.59;;;-0.19;nan
70053;BME280;57398;52.032;4.376;2022-12-17T14:06:35;102720.72;;;-0.28;nan
70053;BME280;57398;52.032;4.376;2022-12-17T14:09:04;102731.94;;;-0.30;nan
70053;BME280;57398;52.032;4.376;2022-12-17T14:11:32;102722.88;;;-0.34;nan
70053;BME280;57398;52.032;4.376;2022-12-17T14:14:27;102729.38;;;-0.30;nan
70053;BME280;57398;52.032;4.376;2022-12-17T14:16:57;102738.56;;;-0.40;nan
70053;BME280;57398;52.032;4.376;2022-12-17T14:19:26;102743.06;;;-0.44;nan
70053;BME280;57398;52.032;4.376;2022-12-17T14:21:56;102738.25;;;-0.49;nan
70053;BME280;57398;52.032;4.376;2022-12-17T14:24:25;102743.13;;;-0.58;nan
70053;BME280;57398;52.032;4.376;2022-12-17T14:26:56;102748.44;;;-0.61;nan
70053;BME280;57398;52.032;4.376;2022-12-17T14:29:26;102755.81;;;-0.57;nan
70053;BME280;57398;52.032;4.376;2022-12-17T14:31:56;102761.06;;;-0.60;nan
70053;BME280;57398;52.032;4.376;2022-12-17T14:34:25;102756.19;;;-0.63;nan
70053;BME280;57398;52.032;4.376;2022-12-17T14:36:55;102757.09;;;-0.64;nan
70053;BME280;57398;52.032;4.376;2022-12-17T14:39:26;102767.59;;;-0.69;nan
70053;BME280;57398;52.032;4.376;2022-12-17T14:41:57;102763.09;;;-0.78;nan
70053;BME280;57398;52.032;4.376;2022-12-17T14:44:53;102773.84;;;-0.87;nan
70053;BME280;57398;52.032;4.376;2022-12-17T14:47:23;102783.41;;;-0.91;nan
70053;BME280;57398;52.032;4.376;2022-12-17T14:49:55;102781.25;;;-0.97;nan
70053;BME280;57398;52.032;4.376;2022-12-17T14:52:32;102777.44;;;-1.04;nan
70053;BME280;57398;52.032;4.376;2022-12-17T14:55:00;102785.44;;;-1.10;nan
70053;BME280;57398;52.032;4.376;2022-12-17T14:57:28;102787.84;;;-1.07;nan